Time;durP1;ratioP1;P1;durP2;ratioP2;P2;SDS_P1;SDS_P2;PMS_P1;PMS_P2;Temp;Humidity;BMP_temperature;BMP_pressure;BME280_temperature;BME280_humidity;BME280_pressure;Samples;Min_cycle;Max_cycle;Signal;HPM_P1;HPM_P2
2021/10/04 00:03:26;;;;;;;4.17;2.10;;;;;;;;;;10205382;28;20046;-62
2021/10/04 00:08:24;;;;;;;0.90;0.90;;;;;;;;;;10197382;28;20117;-64
2021/10/04 00:13:21;;;;;;;1.80;1.67;;;;;;;;;;10183500;28;20435;-62
2021/10/04 00:18:18;;;;;;;4.63;2.40;;;;;;;;;;10215613;28;20533;-63
2021/10/04 00:23:16;;;;;;;3.77;2.27;;;;;;;;;;10207961;28;20030;-63
2021/10/04 00:28:13;;;;;;;2.30;1.30;;;;;;;;;;10202618;28;20041;-63
2021/10/04 00:33:11;;;;;;;3.70;2.03;;;;;;;;;;10201527;28;20053;-63
2021/10/04 00:38:08;;;;;;;2.97;1.70;;;;;;;;;;10201400;28;20042;-62
2021/10/04 00:43:05;;;;;;;5.67;3.13;;;;;;;;;;10199674;28;20449;-63
2021/10/04 00:48:03;;;;;;;7.93;3.53;;;;;;;;;;10182207;28;20045;-62
2021/10/04 00:53:01;;;;;;;3.08;1.92;;;;;;;;;;10202709;28;20035;-63
2021/10/04 00:57:58;;;;;;;6.33;2.80;;;;;;;;;;10202529;28;20095;-62
2021/10/04 01:02:56;;;;;;;8.87;3.10;;;;;;;;;;10200787;28;20046;-63
2021/10/04 01:07:53;;;;;;;1.17;1.03;;;;;;;;;;10205018;28;20522;-63
2021/10/04 01:12:51;;;;;;;4.73;2.10;;;;;;;;;;10208721;28;20085;-63
2021/10/04 01:17:48;;;;;;;5.63;3.40;;;;;;;;;;10212047;28;20044;-63
2021/10/04 01:22:46;;;;;;;4.77;3.57;;;;;;;;;;10216082;28;20027;-62
2021/10/04 01:27:46;;;;;;;1.65;1.20;;;;;;;;;;10218597;28;20030;-62
2021/10/04 01:32:44;;;;;;;3.97;1.85;;;;;;;;;;10211332;28;20035;-63
2021/10/04 01:37:42;;;;;;;6.73;1.50;;;;;;;;;;10201487;28;20046;-63
2021/10/04 01:42:39;;;;;;;2.90;2.10;;;;;;;;;;10202076;28;20644;-62
2021/10/04 01:47:37;;;;;;;5.20;2.37;;;;;;;;;;10196941;28;20027;-62
2021/10/04 01:52:34;;;;;;;8.17;2.57;;;;;;;;;;10207994;28;20117;-62
2021/10/04 01:57:32;;;;;;;3.33;1.80;;;;;;;;;;10211063;28;20125;-63
2021/10/04 02:02:30;;;;;;;1.43;1.30;;;;;;;;;;10174493;28;20039;-64
2021/10/04 02:07:27;;;;;;;3.15;1.70;;;;;;;;;;10201525;28;20027;-63
2021/10/04 02:12:24;;;;;;;2.60;1.60;;;;;;;;;;10206225;28;20031;-63
2021/10/04 02:17:22;;;;;;;3.87;1.53;;;;;;;;;;10212563;28;20121;-62
2021/10/04 02:22:19;;;;;;;1.37;1.27;;;;;;;;;;10224923;28;20413;-62
2021/10/04 02:27:17;;;;;;;1.30;1.10;;;;;;;;;;10213052;28;20038;-63
2021/10/04 02:32:14;;;;;;;3.00;1.00;;;;;;;;;;10241912;28;20035;-63
2021/10/04 02:37:12;;;;;;;3.20;1.10;;;;;;;;;;10228580;28;20071;-63
2021/10/04 02:42:09;;;;;;;2.50;1.27;;;;;;;;;;10228390;28;20046;-63
2021/10/04 02:47:06;;;;;;;3.97;1.57;;;;;;;;;;10226408;28;20159;-63
2021/10/04 02:52:04;;;;;;;2.07;1.23;;;;;;;;;;10242277;28;20069;-63
2021/10/04 02:57:02;;;;;;;1.92;0.90;;;;;;;;;;10248935;28;20046;-63
2021/10/04 03:01:59;;;;;;;3.20;1.00;;;;;;;;;;10227033;28;20031;-62
2021/10/04 03:06:57;;;;;;;4.73;1.70;;;;;;;;;;10234077;28;20034;-63
2021/10/04 03:11:54;;;;;;;6.47;2.27;;;;;;;;;;10226008;28;20045;-62
2021/10/04 03:16:52;;;;;;;5.27;2.30;;;;;;;;;;10214294;28;20042;-61
2021/10/04 03:21:49;;;;;;;1.77;1.60;;;;;;;;;;10191843;28;20039;-62
2021/10/04 03:26:47;;;;;;;0.70;0.70;;;;;;;;;;10216616;28;20038;-63
2021/10/04 03:31:44;;;;;;;1.47;0.73;;;;;;;;;;10230766;28;20479;-62
2021/10/04 03:36:42;;;;;;;3.30;1.70;;;;;;;;;;10221196;28;20050;-61
2021/10/04 03:41:40;;;;;;;1.83;1.60;;;;;;;;;;10223994;28;20057;-63
2021/10/04 03:46:37;;;;;;;1.60;1.03;;;;;;;;;;10224520;28;20038;-64
2021/10/04 03:51:35;;;;;;;2.07;1.20;;;;;;;;;;10203794;28;20117;-63
2021/10/04 03:56:32;;;;;;;5.33;1.13;;;;;;;;;;10205466;28;20046;-64
2021/10/04 04:01:30;;;;;;;2.93;1.43;;;;;;;;;;10158597;28;20098;-64
2021/10/04 04:06:27;;;;;;;3.10;1.37;;;;;;;;;;10194681;28;20034;-64
2021/10/04 04:11:24;;;;;;;2.70;1.80;;;;;;;;;;10201311;28;20395;-63
2021/10/04 04:16:22;;;;;;;4.47;1.40;;;;;;;;;;10194466;28;20041;-64
2021/10/04 04:21:19;;;;;;;2.40;1.10;;;;;;;;;;10192585;28;20035;-64
2021/10/04 04:26:16;;;;;;;2.60;1.10;;;;;;;;;;10199749;28;20093;-63
2021/10/04 04:31:14;;;;;;;11.60;1.60;;;;;;;;;;10182029;28;20485;-63
2021/10/04 04:36:11;;;;;;;1.37;1.10;;;;;;;;;;10197418;28;20097;-63
2021/10/04 04:41:09;;;;;;;5.70;1.30;;;;;;;;;;10196464;28;20045;-63
2021/10/04 04:46:06;;;;;;;2.53;1.20;;;;;;;;;;10197024;28;20041;-64
2021/10/04 04:51:03;;;;;;;2.03;1.63;;;;;;;;;;10203075;28;20488;-64
2021/10/04 04:56:01;;;;;;;1.27;0.90;;;;;;;;;;10197649;28;20503;-63
2021/10/04 05:00:58;;;;;;;1.93;1.30;;;;;;;;;;10187730;28;20440;-64
2021/10/04 05:05:56;;;;;;;1.83;1.00;;;;;;;;;;10210711;28;20035;-64
2021/10/04 05:10:54;;;;;;;1.15;0.90;;;;;;;;;;10173151;28;20224;-63
2021/10/04 05:15:51;;;;;;;1.70;1.00;;;;;;;;;;10204443;28;20504;-64
2021/10/04 05:20:49;;;;;;;1.23;1.13;;;;;;;;;;10193115;28;20122;-64
2021/10/04 05:25:46;;;;;;;3.20;1.50;;;;;;;;;;10195373;28;20039;-63
2021/10/04 05:30:44;;;;;;;3.27;1.57;;;;;;;;;;10199336;28;20518;-64
2021/10/04 05:35:41;;;;;;;6.27;1.83;;;;;;;;;;10196152;28;20034;-63
2021/10/04 05:40:38;;;;;;;3.90;1.40;;;;;;;;;;10194070;28;20035;-63
2021/10/04 05:45:36;;;;;;;1.40;1.27;;;;;;;;;;10179416;28;20038;-64
2021/10/04 05:50:33;;;;;;;6.27;1.80;;;;;;;;;;10180705;28;20034;-63
2021/10/04 05:55:31;;;;;;;1.53;1.23;;;;;;;;;;10201535;28;20042;-63
2021/10/04 06:00:29;;;;;;;1.33;1.20;;;;;;;;;;10198813;28;20054;-64
2021/10/04 06:05:27;;;;;;;2.30;1.60;;;;;;;;;;10189547;28;20034;-64
2021/10/04 06:10:24;;;;;;;3.30;1.07;;;;;;;;;;10195871;28;20141;-63
2021/10/04 06:15:22;;;;;;;1.73;1.10;;;;;;;;;;10189768;28;20035;-64
2021/10/04 06:20:19;;;;;;;1.73;1.27;;;;;;;;;;10186902;28;20057;-63
2021/10/04 06:25:18;;;;;;;4.00;1.80;;;;;;;;;;10198975;28;20492;-63
2021/10/04 06:30:15;;;;;;;4.30;1.45;;;;;;;;;;10211465;28;21441;-64
2021/10/04 06:35:13;;;;;;;4.83;1.27;;;;;;;;;;10196569;28;20041;-65
2021/10/04 06:40:11;;;;;;;3.63;1.20;;;;;;;;;;10176725;28;20189;-63
2021/10/04 06:45:08;;;;;;;1.47;1.27;;;;;;;;;;10206517;28;20240;-64
2021/10/04 06:50:09;;;;;;;2.37;1.50;;;;;;;;;;10197789;28;20277;-63
2021/10/04 06:55:07;;;;;;;5.82;2.00;;;;;;;;;;10187426;28;20316;-64
2021/10/04 07:00:06;;;;;;;6.57;1.45;;;;;;;;;;10184426;28;20038;-64
2021/10/04 07:05:05;;;;;;;2.28;1.98;;;;;;;;;;10198462;28;20034;-64
2021/10/04 07:10:03;;;;;;;3.08;1.23;;;;;;;;;;10203986;28;20269;-64
2021/10/04 07:15:00;;;;;;;5.88;1.33;;;;;;;;;;10197798;28;20113;-63
2021/10/04 07:19:58;;;;;;;3.73;1.20;;;;;;;;;;10157540;28;20122;-64
2021/10/04 07:24:55;;;;;;;1.53;1.23;;;;;;;;;;10187390;28;20082;-63
2021/10/04 07:29:53;;;;;;;5.97;1.53;;;;;;;;;;10174585;28;20295;-63
2021/10/04 07:34:51;;;;;;;;;;;;;;;;;;10206555;28;20050;-63
2021/10/04 07:39:49;;;;;;;2.67;1.35;;;;;;;;;;10205498;28;19918;-64
2021/10/04 07:44:46;;;;;;;3.30;1.10;;;;;;;;;;10177707;28;20385;-64
2021/10/04 07:49:43;;;;;;;3.60;1.10;;;;;;;;;;10194389;28;20118;-64
2021/10/04 07:54:41;;;;;;;2.13;1.50;;;;;;;;;;10176681;28;20049;-63
2021/10/04 07:59:39;;;;;;;0.90;0.90;;;;;;;;;;10171233;28;20057;-62
2021/10/04 08:04:37;;;;;;;5.25;1.23;;;;;;;;;;10193941;28;20102;-64
2021/10/04 08:09:34;;;;;;;3.43;1.00;;;;;;;;;;10201362;28;20126;-64
2021/10/04 08:14:32;;;;;;;4.37;1.23;;;;;;;;;;10189758;28;20038;-63
2021/10/04 08:19:30;;;;;;;3.50;1.17;;;;;;;;;;10191577;28;20085;-63
2021/10/04 08:24:27;;;;;;;2.33;1.27;;;;;;;;;;10176963;28;20113;-63
2021/10/04 08:29:24;;;;;;;2.13;1.00;;;;;;;;;;10196231;28;20041;-65
2021/10/04 08:34:22;;;;;;;2.67;1.40;;;;;;;;;;10188032;28;20606;-63
2021/10/04 08:39:19;;;;;;;2.90;1.30;;;;;;;;;;10183793;28;20050;-63
2021/10/04 08:44:17;;;;;;;8.63;1.97;;;;;;;;;;10184933;28;20057;-64
2021/10/04 08:49:16;;;;;;;2.23;1.03;;;;;;;;;;10191600;28;20039;-64
2021/10/04 08:54:14;;;;;;;3.83;0.95;;;;;;;;;;10163984;28;20411;-64
2021/10/04 08:59:13;;;;;;;2.13;1.20;;;;;;;;;;10167799;28;20058;-64
2021/10/04 09:04:10;;;;;;;6.50;1.05;;;;;;;;;;10192812;28;20106;-64
2021/10/04 09:09:12;;;;;;;3.20;1.00;;;;;;;;;;10188007;28;20043;-65
2021/10/04 09:14:28;;;;;;;2.33;1.00;;;;;;;;;;10173683;28;20048;-63
2021/10/04 09:19:27;;;;;;;2.35;1.35;;;;;;;;;;10198006;28;20048;-64
2021/10/04 09:24:24;;;;;;;1.33;0.93;;;;;;;;;;10199343;28;20048;-65
2021/10/04 09:29:24;;;;;;;2.93;0.80;;;;;;;;;;10199430;28;20377;-64
2021/10/04 09:34:27;;;;;;;3.53;0.77;;;;;;;;;;10212767;28;20396;-63
2021/10/04 09:39:27;;;;;;;2.58;0.90;;;;;;;;;;10184084;28;21291;-64
2021/10/04 09:44:26;;;;;;;0.95;0.85;;;;;;;;;;10205851;28;20061;-63
2021/10/04 09:49:24;;;;;;;;;;;;;;;;;;10210294;28;20062;-65
2021/10/04 09:54:21;;;;;;;1.85;0.93;;;;;;;;;;10193322;28;20362;-64
2021/10/04 09:59:19;;;;;;;2.87;1.00;;;;;;;;;;10184593;28;20042;-63
2021/10/04 10:04:20;;;;;;;1.37;0.57;;;;;;;;;;10179086;28;20042;-63
2021/10/04 10:09:18;;;;;;;4.07;0.70;;;;;;;;;;10195048;28;20039;-64
2021/10/04 10:14:15;;;;;;;1.27;0.65;;;;;;;;;;10194054;28;20046;-64
2021/10/04 10:19:15;;;;;;;1.63;1.20;;;;;;;;;;10212808;28;20034;-64
2021/10/04 10:24:13;;;;;;;4.97;1.05;;;;;;;;;;10186248;28;20041;-65
2021/10/04 10:29:13;;;;;;;7.87;2.50;;;;;;;;;;10201539;28;20511;-63
2021/10/04 10:34:11;;;;;;;44.78;16.05;;;;;;;;;;10211769;28;20580;-65
2021/10/04 10:39:08;;;;;;;15.90;8.50;;;;;;;;;;10211872;28;20518;-64
2021/10/04 10:44:12;;;;;;;11.87;6.30;;;;;;;;;;10206523;28;20519;-65
2021/10/04 10:49:10;;;;;;;4.43;2.88;;;;;;;;;;10172102;28;20043;-64
2021/10/04 10:54:43;;;;;;;7.80;4.45;;;;;;;;;;10203090;28;20090;-65
2021/10/04 10:59:41;;;;;;;8.02;3.35;;;;;;;;;;10105077;28;20085;-63
2021/10/04 11:04:39;;;;;;;7.10;3.67;;;;;;;;;;10201252;28;20093;-63
2021/10/04 11:09:56;;;;;;;21.73;8.40;;;;;;;;;;10191454;28;20086;-63
2021/10/04 11:14:55;;;;;;;13.73;4.50;;;;;;;;;;10207805;28;20630;-63
2021/10/04 11:19:52;;;;;;;3.40;2.00;;;;;;;;;;10200387;28;20496;-63
2021/10/04 11:24:59;;;;;;;4.47;1.00;;;;;;;;;;10202276;28;20046;-63
2021/10/04 11:30:01;;;;;;;2.33;1.15;;;;;;;;;;10203614;28;20053;-63
2021/10/04 11:35:09;;;;;;;5.63;0.82;;;;;;;;;;10191442;28;20121;-63
2021/10/04 11:40:07;;;;;;;2.10;1.05;;;;;;;;;;10199346;28;20034;-64
2021/10/04 11:45:08;;;;;;;1.15;0.63;;;;;;;;;;10203724;28;20045;-64
2021/10/04 11:50:10;;;;;;;1.20;0.63;;;;;;;;;;10202011;28;20101;-63
2021/10/04 11:55:09;;;;;;;3.25;0.68;;;;;;;;;;10194371;28;20504;-63
2021/10/04 12:00:06;;;;;;;;;;;;;;;;;;10205517;28;20054;-64
2021/10/04 12:05:21;;;;;;;3.80;0.95;;;;;;;;;;10191844;28;19914;-65
2021/10/04 12:10:18;;;;;;;2.58;0.47;;;;;;;;;;10192697;28;20050;-64
2021/10/04 12:15:19;;;;;;;0.30;0.23;;;;;;;;;;10191024;28;20054;-64
2021/10/04 12:20:21;;;;;;;1.48;0.47;;;;;;;;;;10180172;28;20047;-64
2021/10/04 12:25:26;;;;;;;1.80;0.40;;;;;;;;;;10196275;28;20111;-65
2021/10/04 12:30:23;;;;;;;3.72;0.40;;;;;;;;;;10201547;28;20488;-64
2021/10/04 12:35:23;;;;;;;3.13;0.33;;;;;;;;;;10197980;28;20054;-64
2021/10/04 12:40:32;;;;;;;1.23;0.40;;;;;;;;;;10204551;28;20046;-64
2021/10/04 12:45:30;;;;;;;0.98;0.25;;;;;;;;;;10191412;28;20128;-64
2021/10/04 12:50:29;;;;;;;0.63;0.35;;;;;;;;;;10196440;28;20085;-64
2021/10/04 12:55:27;;;;;;;0.75;0.45;;;;;;;;;;10187529;28;20038;-64
2021/10/04 13:00:30;;;;;;;4.70;0.73;;;;;;;;;;10186797;28;20089;-64
2021/10/04 13:05:27;;;;;;;0.70;0.30;;;;;;;;;;10188591;28;20046;-64
2021/10/04 13:10:25;;;;;;;1.90;0.50;;;;;;;;;;10195541;28;20035;-64
2021/10/04 13:15:22;;;;;;;0.27;0.17;;;;;;;;;;10200498;28;20039;-64
2021/10/04 13:20:20;;;;;;;1.40;0.40;;;;;;;;;;10187940;28;20508;-65
2021/10/04 13:25:17;;;;;;;4.50;0.50;;;;;;;;;;10184174;28;20038;-64
2021/10/04 13:30:14;;;;;;;1.63;0.33;;;;;;;;;;10195173;28;20035;-65
2021/10/04 13:35:12;;;;;;;1.10;0.40;;;;;;;;;;10177666;28;20604;-64
2021/10/04 13:40:10;;;;;;;1.10;0.40;;;;;;;;;;10181433;28;20043;-64
2021/10/04 13:45:08;;;;;;;0.47;0.30;;;;;;;;;;10189776;28;20455;-64
2021/10/04 13:50:05;;;;;;;;;;;;;;;;;;10194116;28;20519;-64
2021/10/04 13:55:07;;;;;;;0.68;0.38;;;;;;;;;;10164145;28;1170682;-64
2021/10/04 14:00:09;;;;;;;4.43;0.40;;;;;;;;;;10208204;28;20060;-65
2021/10/04 14:05:10;;;;;;;1.52;0.38;;;;;;;;;;10178540;28;20454;-64
2021/10/04 14:10:07;;;;;;;2.88;0.52;;;;;;;;;;10191825;28;20089;-64
2021/10/04 14:15:06;;;;;;;6.40;0.65;;;;;;;;;;10219623;28;20034;-64
2021/10/04 14:20:04;;;;;;;0.20;0.20;;;;;;;;;;10201639;28;20512;-64
2021/10/04 14:25:03;;;;;;;0.10;0.10;;;;;;;;;;10185259;28;20547;-64
2021/10/04 14:30:01;;;;;;;2.85;0.47;;;;;;;;;;10188346;28;20124;-64
2021/10/04 14:34:58;;;;;;;1.10;0.20;;;;;;;;;;10201858;28;20197;-64
2021/10/04 14:39:56;;;;;;;0.87;0.37;;;;;;;;;;10198367;28;20677;-66
2021/10/04 14:44:53;;;;;;;2.80;0.50;;;;;;;;;;10202899;28;20169;-65
2021/10/04 14:49:50;;;;;;;4.10;0.30;;;;;;;;;;10201508;28;20038;-64
2021/10/04 14:54:48;;;;;;;1.13;0.40;;;;;;;;;;10190477;28;20035;-63
2021/10/04 14:59:45;;;;;;;1.10;0.30;;;;;;;;;;10201985;28;20045;-64
2021/10/04 15:04:43;;;;;;;0.47;0.23;;;;;;;;;;10199693;28;20105;-64
2021/10/04 15:09:40;;;;;;;0.70;0.50;;;;;;;;;;10194153;28;20047;-64
2021/10/04 15:14:37;;;;;;;1.50;0.40;;;;;;;;;;10178467;28;20496;-64
2021/10/04 15:19:35;;;;;;;2.37;0.37;;;;;;;;;;10196886;28;20046;-64
2021/10/04 15:24:32;;;;;;;0.10;0.10;;;;;;;;;;10192486;28;20128;-63
2021/10/04 15:29:30;;;;;;;0.63;0.30;;;;;;;;;;10216989;28;20045;-64
2021/10/04 15:34:27;;;;;;;0.20;0.20;;;;;;;;;;10190828;28;20026;-65
2021/10/04 15:39:25;;;;;;;0.20;0.20;;;;;;;;;;10189201;28;20050;-63
2021/10/04 15:44:23;;;;;;;0.60;0.33;;;;;;;;;;10203374;28;20102;-65
2021/10/04 15:49:21;;;;;;;0.93;0.90;;;;;;;;;;10199335;28;20034;-64
2021/10/04 15:54:18;;;;;;;3.97;1.17;;;;;;;;;;10198869;28;20039;-64
2021/10/04 15:59:15;;;;;;;3.63;0.47;;;;;;;;;;10192001;28;20073;-64
2021/10/04 16:04:13;;;;;;;0.97;0.97;;;;;;;;;;10200754;28;20035;-64
2021/10/04 16:09:11;;;;;;;;;;;;;;;;;;10174891;28;20035;-64
2021/10/04 16:14:08;;;;;;;4.55;1.00;;;;;;;;;;10205109;28;20356;-64
2021/10/04 16:19:06;;;;;;;3.67;0.70;;;;;;;;;;10200032;28;21157;-64
2021/10/04 16:24:03;;;;;;;3.90;1.57;;;;;;;;;;10202211;28;20536;-64
2021/10/04 16:29:01;;;;;;;0.90;0.50;;;;;;;;;;10202945;28;20038;-64
2021/10/04 16:33:59;;;;;;;;;;;;;;;;;;10173789;28;20359;-64
2021/10/04 16:38:57;;;;;;;2.30;0.40;;;;;;;;;;10196873;28;20011;-64
2021/10/04 16:43:54;;;;;;;8.18;0.65;;;;;;;;;;10201476;28;20092;-63
2021/10/04 16:48:53;;;;;;;1.40;0.87;;;;;;;;;;10193596;28;20038;-64
2021/10/04 16:53:53;;;;;;;0.70;0.30;;;;;;;;;;10201960;28;20512;-64
2021/10/04 16:58:51;;;;;;;3.85;0.93;;;;;;;;;;10215173;28;20504;-64
2021/10/04 17:03:48;;;;;;;11.60;5.18;;;;;;;;;;10204479;28;20407;-65
2021/10/04 17:08:46;;;;;;;5.67;3.03;;;;;;;;;;10188811;28;20042;-64
2021/10/04 17:13:43;;;;;;;6.87;3.77;;;;;;;;;;10184738;28;20282;-64
2021/10/04 17:18:40;;;;;;;5.73;2.60;;;;;;;;;;10196658;28;20096;-63
2021/10/04 17:23:38;;;;;;;1.20;0.97;;;;;;;;;;10186176;28;20042;-64
2021/10/04 17:28:36;;;;;;;2.22;1.60;;;;;;;;;;10196326;28;20034;-64
2021/10/04 17:33:33;;;;;;;1.90;1.10;;;;;;;;;;10177472;28;20038;-64
2021/10/04 17:38:31;;;;;;;1.50;0.97;;;;;;;;;;10192308;28;20038;-64
2021/10/04 17:43:28;;;;;;;3.80;1.43;;;;;;;;;;10200984;28;20030;-64
2021/10/04 17:48:27;;;;;;;1.20;1.17;;;;;;;;;;10203977;28;20061;-63
2021/10/04 17:53:25;;;;;;;2.80;1.02;;;;;;;;;;10203353;28;20393;-64
2021/10/04 17:58:22;;;;;;;0.97;0.83;;;;;;;;;;10207498;28;20031;-63
2021/10/04 18:03:20;;;;;;;0.80;0.50;;;;;;;;;;10203773;28;20026;-63
2021/10/04 18:08:18;;;;;;;0.80;0.80;;;;;;;;;;10218664;28;20038;-64
2021/10/04 18:13:16;;;;;;;1.65;1.00;;;;;;;;;;10211062;28;20050;-64
2021/10/04 18:18:13;;;;;;;2.00;1.30;;;;;;;;;;10202934;28;20046;-64
2021/10/04 18:23:11;;;;;;;3.87;1.20;;;;;;;;;;10194279;28;20030;-64
2021/10/04 18:28:09;;;;;;;1.70;0.97;;;;;;;;;;10190401;28;20034;-63
2021/10/04 18:33:07;;;;;;;3.97;1.20;;;;;;;;;;10184589;28;20049;-64
2021/10/04 18:38:05;;;;;;;2.58;1.73;;;;;;;;;;10199738;28;20058;-64
2021/10/04 18:43:02;;;;;;;4.40;1.87;;;;;;;;;;10187688;28;20121;-64
2021/10/04 18:48:00;;;;;;;2.93;2.30;;;;;;;;;;10193594;28;20158;-63
2021/10/04 18:52:59;;;;;;;2.63;0.90;;;;;;;;;;10197701;28;20038;-64
2021/10/04 18:57:57;;;;;;;2.58;1.45;;;;;;;;;;10177304;28;20377;-64
2021/10/04 19:02:55;;;;;;;3.53;1.60;;;;;;;;;;10190122;28;20612;-62
2021/10/04 19:07:53;;;;;;;3.20;1.58;;;;;;;;;;10190098;28;20050;-64
2021/10/04 19:12:50;;;;;;;6.37;1.37;;;;;;;;;;10199610;28;20050;-64
2021/10/04 19:17:47;;;;;;;1.30;1.20;;;;;;;;;;10188556;28;20034;-64
2021/10/04 19:22:46;;;;;;;2.47;0.60;;;;;;;;;;10212840;28;20034;-64
2021/10/04 19:27:44;;;;;;;1.88;0.95;;;;;;;;;;10184186;28;20705;-64
2021/10/04 19:32:41;;;;;;;;;;;;;;;;;;10208567;28;20034;-64
2021/10/04 19:37:39;;;;;;;7.05;0.75;;;;;;;;;;10203767;28;20375;-64
2021/10/04 19:42:37;;;;;;;0.90;0.87;;;;;;;;;;10192733;28;20174;-64
2021/10/04 19:47:35;;;;;;;1.27;1.02;;;;;;;;;;10191325;28;20720;-64
2021/10/04 19:52:34;;;;;;;2.27;1.07;;;;;;;;;;10198536;28;20034;-64
2021/10/04 19:57:32;;;;;;;4.45;1.75;;;;;;;;;;10195142;28;20049;-63
2021/10/04 20:02:29;;;;;;;1.50;1.27;;;;;;;;;;10189233;28;20022;-63
2021/10/04 20:07:26;;;;;;;3.97;1.07;;;;;;;;;;10191517;28;20133;-62
2021/10/04 20:12:24;;;;;;;0.80;0.80;;;;;;;;;;10203115;28;20511;-62
2021/10/04 20:17:21;;;;;;;0.60;0.60;;;;;;;;;;10194401;28;20041;-63
2021/10/04 20:22:19;;;;;;;1.73;1.30;;;;;;;;;;10191090;28;20054;-62
2021/10/04 20:27:16;;;;;;;1.20;0.80;;;;;;;;;;10173462;28;20053;-61
2021/10/04 20:32:14;;;;;;;4.33;0.80;;;;;;;;;;10195773;28;20037;-63
2021/10/04 20:37:11;;;;;;;2.73;0.70;;;;;;;;;;10197985;28;20286;-63
2021/10/04 20:42:09;;;;;;;0.93;0.87;;;;;;;;;;10195315;28;20043;-65
2021/10/04 20:47:06;;;;;;;1.00;0.90;;;;;;;;;;10197714;28;20038;-65
2021/10/04 20:52:03;;;;;;;1.27;0.87;;;;;;;;;;10194425;28;20516;-62
2021/10/04 20:57:01;;;;;;;5.47;1.60;;;;;;;;;;10192632;28;20045;-63
2021/10/04 21:01:59;;;;;;;2.53;1.13;;;;;;;;;;10196284;28;20030;-62
2021/10/04 21:07:03;;;;;;;1.30;0.87;;;;;;;;;;10180278;28;20042;-63
2021/10/04 21:12:01;;;;;;;2.10;0.75;;;;;;;;;;10188289;28;20146;-63
2021/10/04 21:16:58;;;;;;;1.98;0.68;;;;;;;;;;10208000;28;20034;-62
2021/10/04 21:21:56;;;;;;;4.90;1.17;;;;;;;;;;10185505;28;20745;-62
2021/10/04 21:26:53;;;;;;;3.93;1.77;;;;;;;;;;10205556;28;20040;-64
2021/10/04 21:31:50;;;;;;;2.57;1.50;;;;;;;;;;10194884;28;20279;-63
2021/10/04 21:36:48;;;;;;;3.07;1.90;;;;;;;;;;10191416;28;20026;-62
2021/10/04 21:41:45;;;;;;;3.03;1.47;;;;;;;;;;10202329;28;20053;-63
2021/10/04 21:46:43;;;;;;;1.40;0.80;;;;;;;;;;10198834;28;20035;-62
2021/10/04 21:51:41;;;;;;;0.87;0.80;;;;;;;;;;10215272;28;20026;-62
2021/10/04 21:56:39;;;;;;;;;;;;;;;;;;10188040;28;20057;-61
2021/10/04 22:01:49;;;;;;;1.15;0.50;;;;;;;;;;10199829;28;19914;-63
2021/10/04 22:07:04;;;;;;;1.95;1.00;;;;;;;;;;10199936;28;20069;-62
2021/10/04 22:12:02;;;;;;;1.13;1.02;;;;;;;;;;10200374;28;20129;-63
2021/10/04 22:16:59;;;;;;;0.70;0.70;;;;;;;;;;10190136;28;20094;-63
2021/10/04 22:21:57;;;;;;;1.03;0.87;;;;;;;;;;10188874;28;20035;-63
2021/10/04 22:26:54;;;;;;;1.43;0.70;;;;;;;;;;10199245;28;20472;-64
2021/10/04 22:31:52;;;;;;;2.23;1.00;;;;;;;;;;10187804;28;20514;-63
2021/10/04 22:36:49;;;;;;;2.60;0.83;;;;;;;;;;10199282;28;20041;-64
2021/10/04 22:41:47;;;;;;;1.53;0.60;;;;;;;;;;10208492;28;20069;-63
2021/10/04 22:46:46;;;;;;;0.20;0.20;;;;;;;;;;10205340;28;20139;-64
2021/10/04 22:51:43;;;;;;;0.43;0.43;;;;;;;;;;10195886;28;20404;-63
2021/10/04 22:56:40;;;;;;;3.33;1.67;;;;;;;;;;10203926;28;20097;-63
2021/10/04 23:01:38;;;;;;;4.73;1.37;;;;;;;;;;10192207;28;20122;-63
2021/10/04 23:06:35;;;;;;;2.43;0.80;;;;;;;;;;10192413;28;20034;-63
2021/10/04 23:11:32;;;;;;;5.10;1.83;;;;;;;;;;10200069;28;20035;-63
2021/10/04 23:16:30;;;;;;;1.97;1.40;;;;;;;;;;10212072;28;20097;-63
2021/10/04 23:21:27;;;;;;;1.97;0.97;;;;;;;;;;10205071;28;20035;-60
2021/10/04 23:26:25;;;;;;;1.97;1.10;;;;;;;;;;10182341;28;20038;-61
2021/10/04 23:31:22;;;;;;;0.50;0.50;;;;;;;;;;10199449;28;20042;-63
2021/10/04 23:36:20;;;;;;;1.67;1.20;;;;;;;;;;10198070;28;20033;-62
2021/10/04 23:41:17;;;;;;;5.53;1.43;;;;;;;;;;10199959;28;20031;-63
2021/10/04 23:46:14;;;;;;;3.40;1.97;;;;;;;;;;10201002;28;20122;-62
2021/10/04 23:51:12;;;;;;;0.97;0.90;;;;;;;;;;10202174;28;20497;-63
2021/10/04 23:56:10;;;;;;;3.20;1.80;;;;;;;;;;10211697;28;20038;-63
